Time;durP1;ratioP1;P1;durP2;ratioP2;P2;SDS_P1;SDS_P2;PMS_P1;PMS_P2;Temp;Humidity;BMP_temperature;BMP_pressure;BME280_temperature;BME280_humidity;BME280_pressure;Samples;Min_cycle;Max_cycle;Signal;HPM_P1;HPM_P2
2022/05/16 00:02:08;;;;;;;10.07;4.60;;;;;;;;;;5076621;28;20072;-87
2022/05/16 00:04:39;;;;;;;11.23;4.35;;;;;;;;;;5076419;28;20411;-88
2022/05/16 00:07:07;;;;;;;10.57;5.53;;;;;;;;;;5076713;28;20051;-87
2022/05/16 00:09:34;;;;;;;13.60;4.93;;;;;;;;;;5075540;28;20400;-87
2022/05/16 00:12:01;;;;;;;11.73;5.03;;;;;;;;;;5075404;28;20128;-88
2022/05/16 00:14:28;;;;;;;14.18;4.28;;;;;;;;;;5075777;28;20098;-88
2022/05/16 00:16:56;;;;;;;11.50;5.00;;;;;;;;;;5081857;28;20135;-88
2022/05/16 00:19:23;;;;;;;10.65;4.35;;;;;;;;;;5076467;28;20059;-87
2022/05/16 00:21:50;;;;;;;8.77;5.10;;;;;;;;;;5076403;28;20051;-87
2022/05/16 00:24:20;;;;;;;8.07;4.70;;;;;;;;;;5076307;28;20044;-87
2022/05/16 00:26:47;;;;;;;17.75;5.18;;;;;;;;;;5075397;28;20045;-87
2022/05/16 00:29:14;;;;;;;14.20;5.00;;;;;;;;;;5075256;28;20091;-87
2022/05/16 00:31:41;;;;;;;15.48;5.32;;;;;;;;;;5074955;28;20051;-87
2022/05/16 00:34:08;;;;;;;14.35;5.25;;;;;;;;;;5075285;28;20058;-87
2022/05/16 00:36:35;;;;;;;13.52;5.05;;;;;;;;;;5075075;28;20055;-87
2022/05/16 00:39:03;;;;;;;13.98;5.40;;;;;;;;;;5075042;28;20051;-86
2022/05/16 00:41:30;;;;;;;14.07;5.20;;;;;;;;;;5074950;28;20116;-87
2022/05/16 00:43:58;;;;;;;14.93;5.57;;;;;;;;;;5074948;28;20565;-87
2022/05/16 00:46:27;;;;;;;13.55;5.43;;;;;;;;;;5074506;28;20455;-87
2022/05/16 00:48:54;;;;;;;13.05;5.80;;;;;;;;;;5075803;28;20484;-86
2022/05/16 00:51:42;;;;;;;12.90;5.28;;;;;;;;;;5074531;28;20561;-87
2022/05/16 00:54:32;;;;;;;13.85;5.75;;;;;;;;;;5074551;28;20083;-88
2022/05/16 00:57:02;;;;;;;12.05;5.03;;;;;;;;;;5064724;28;20087;-87
2022/05/16 00:59:52;;;;;;;9.35;5.05;;;;;;;;;;5074633;28;20076;-87
2022/05/16 01:05:26;;;;;;;10.50;4.85;;;;;;;;;;4974778;28;20054;-87
2022/05/16 01:07:57;;;;;;;12.27;5.20;;;;;;;;;;4974677;28;20487;-87
2022/05/16 01:10:24;;;;;;;12.73;5.30;;;;;;;;;;5012239;28;20143;-87
2022/05/16 01:12:52;;;;;;;12.75;5.45;;;;;;;;;;5075329;28;20390;-87
2022/05/16 01:15:38;;;;;;;11.88;5.53;;;;;;;;;;5073709;28;20048;-87
2022/05/16 01:18:07;;;;;;;11.35;5.93;;;;;;;;;;5066008;28;20166;-87
2022/05/16 01:20:45;;;;;;;11.80;5.50;;;;;;;;;;5075515;28;20040;-87
2022/05/16 01:23:14;;;;;;;13.35;6.07;;;;;;;;;;5074306;28;20052;-87
2022/05/16 01:25:42;;;;;;;14.02;5.68;;;;;;;;;;5074167;28;20080;-87
2022/05/16 01:28:09;;;;;;;15.75;6.30;;;;;;;;;;5073921;28;20571;-88
2022/05/16 01:30:40;;;;;;;14.40;5.78;;;;;;;;;;5074055;28;20051;-87
2022/05/16 01:33:07;;;;;;;10.05;5.90;;;;;;;;;;5073532;28;20503;-87
2022/05/16 01:35:34;;;;;;;17.33;6.63;;;;;;;;;;5074901;28;20048;-87
2022/05/16 01:38:22;;;;;;;18.35;6.60;;;;;;;;;;5074068;28;20056;-87
2022/05/16 01:40:50;;;;;;;11.70;5.28;;;;;;;;;;5073943;28;20045;-87
2022/05/16 01:43:18;;;;;;;13.75;6.28;;;;;;;;;;5073839;28;20212;-87
2022/05/16 01:45:45;;;;;;;18.25;6.43;;;;;;;;;;5073901;28;20127;-87
2022/05/16 01:48:14;;;;;;;12.63;6.00;;;;;;;;;;5074964;28;20045;-86
2022/05/16 01:50:42;;;;;;;11.13;5.60;;;;;;;;;;5073926;28;20084;-87
2022/05/16 01:53:10;;;;;;;12.93;5.63;;;;;;;;;;5072986;28;20484;-87
2022/05/16 01:55:37;;;;;;;11.93;6.05;;;;;;;;;;5073864;28;20455;-87
2022/05/16 01:58:04;;;;;;;16.98;5.85;;;;;;;;;;5074306;28;20408;-86
2022/05/16 02:00:32;;;;;;;9.05;5.57;;;;;;;;;;5073591;28;20052;-87
2022/05/16 02:02:59;;;;;;;10.77;5.50;;;;;;;;;;5073251;28;20059;-87
2022/05/16 02:05:27;;;;;;;12.63;5.28;;;;;;;;;;5073038;28;20055;-87
2022/05/16 02:07:55;;;;;;;9.10;5.00;;;;;;;;;;5074511;28;20056;-87
2022/05/16 02:10:23;;;;;;;11.23;6.05;;;;;;;;;;5073926;28;20493;-87
2022/05/16 02:12:51;;;;;;;14.00;6.25;;;;;;;;;;5073162;28;20564;-87
2022/05/16 02:15:20;;;;;;;21.48;6.03;;;;;;;;;;5072632;28;20400;-86
2022/05/16 02:17:47;;;;;;;11.10;5.82;;;;;;;;;;5072844;28;20139;-86
2022/05/16 02:20:15;;;;;;;13.52;5.55;;;;;;;;;;5072637;28;20127;-87
2022/05/16 02:25:28;;;;;;;9.60;5.80;;;;;;;;;;5074236;28;20127;-87
2022/05/16 02:27:55;;;;;;;11.23;6.38;;;;;;;;;;5072998;28;20076;-87
2022/05/16 02:30:23;;;;;;;14.85;5.55;;;;;;;;;;5072570;28;20380;-87
2022/05/16 02:32:50;;;;;;;16.02;6.82;;;;;;;;;;5074521;28;20055;-86
2022/05/16 02:35:17;;;;;;;15.10;6.68;;;;;;;;;;5072721;28;20054;-87
2022/05/16 02:37:45;;;;;;;13.02;6.35;;;;;;;;;;5072735;28;20060;-87
2022/05/16 02:40:12;;;;;;;19.92;7.03;;;;;;;;;;5072902;28;20406;-87
2022/05/16 02:42:39;;;;;;;10.93;6.13;;;;;;;;;;5072300;28;20556;-86
2022/05/16 02:45:07;;;;;;;13.38;6.63;;;;;;;;;;5071997;28;20135;-87
2022/05/16 02:47:35;;;;;;;11.68;6.60;;;;;;;;;;5073924;28;20079;-87
2022/05/16 02:50:03;;;;;;;15.30;6.43;;;;;;;;;;5073446;28;20048;-87
2022/05/16 02:52:30;;;;;;;18.65;9.32;;;;;;;;;;5073023;28;20158;-86
2022/05/16 02:55:00;;;;;;;46.15;27.63;;;;;;;;;;5072649;28;20045;-87
2022/05/16 02:57:28;;;;;;;32.22;17.85;;;;;;;;;;5073402;28;20469;-87
2022/05/16 02:59:56;;;;;;;18.30;10.80;;;;;;;;;;5072341;28;20051;-86
2022/05/16 03:02:23;;;;;;;16.48;9.43;;;;;;;;;;5072464;28;20049;-86
2022/05/16 03:04:51;;;;;;;13.43;8.38;;;;;;;;;;5071291;28;20049;-87
2022/05/16 03:07:18;;;;;;;11.35;7.25;;;;;;;;;;5072502;28;20468;-87
2022/05/16 03:09:47;;;;;;;15.88;6.85;;;;;;;;;;5072178;28;20059;-87
2022/05/16 03:12:14;;;;;;;16.50;8.48;;;;;;;;;;5075686;28;20062;-86
2022/05/16 03:14:42;;;;;;;13.23;6.78;;;;;;;;;;5075648;28;20411;-86
2022/05/16 03:17:09;;;;;;;17.50;7.28;;;;;;;;;;5093367;28;20174;-88
2022/05/16 03:19:36;;;;;;;14.32;7.05;;;;;;;;;;5075789;28;20470;-87
2022/05/16 03:22:04;;;;;;;14.45;6.18;;;;;;;;;;5075894;28;20048;-87
2022/05/16 03:24:32;;;;;;;14.93;6.60;;;;;;;;;;5092983;28;20083;-87
2022/05/16 03:27:00;;;;;;;9.75;6.05;;;;;;;;;;5093146;28;20087;-87
2022/05/16 03:29:27;;;;;;;11.85;6.50;;;;;;;;;;5075678;28;20549;-87
2022/05/16 03:31:55;;;;;;;12.90;6.72;;;;;;;;;;5075736;28;20044;-87
2022/05/16 03:34:22;;;;;;;12.02;7.03;;;;;;;;;;5075185;28;20052;-87
2022/05/16 03:36:49;;;;;;;10.07;6.00;;;;;;;;;;5075741;28;20457;-87
2022/05/16 03:42:07;;;;;;;15.30;6.80;;;;;;;;;;5093147;28;20040;-87
2022/05/16 03:44:35;;;;;;;18.33;7.70;;;;;;;;;;5075836;28;20048;-87
2022/05/16 03:47:02;;;;;;;15.68;7.07;;;;;;;;;;5075346;28;20127;-87
2022/05/16 03:49:30;;;;;;;13.73;7.20;;;;;;;;;;5074822;28;20069;-87
2022/05/16 03:51:59;;;;;;;13.88;7.93;;;;;;;;;;5075173;28;20048;-87
2022/05/16 03:54:26;;;;;;;13.75;7.05;;;;;;;;;;5075410;28;20537;-87
2022/05/16 03:56:54;;;;;;;17.80;9.02;;;;;;;;;;5075236;28;20524;-87
2022/05/16 03:59:21;;;;;;;16.13;8.55;;;;;;;;;;5075115;28;20131;-85
2022/05/16 04:01:50;;;;;;;15.13;8.30;;;;;;;;;;5075193;28;20044;-87
2022/05/16 04:04:18;;;;;;;16.98;7.93;;;;;;;;;;5074537;28;20071;-86
2022/05/16 04:06:45;;;;;;;15.40;8.07;;;;;;;;;;5075523;28;20275;-87
2022/05/16 04:09:12;;;;;;;17.27;9.30;;;;;;;;;;5093051;28;20062;-87
2022/05/16 04:11:39;;;;;;;15.43;7.88;;;;;;;;;;5075189;28;20061;-87
2022/05/16 04:14:07;;;;;;;15.60;7.72;;;;;;;;;;5075032;28;20143;-87
2022/05/16 04:16:34;;;;;;;15.80;9.88;;;;;;;;;;5076386;28;20058;-87
2022/05/16 04:19:01;;;;;;;14.55;9.43;;;;;;;;;;5078461;28;20527;-86
2022/05/16 04:21:29;;;;;;;14.38;9.32;;;;;;;;;;5078494;28;20127;-86
2022/05/16 04:23:56;;;;;;;18.73;9.55;;;;;;;;;;5096362;28;20056;-86
2022/05/16 04:26:23;;;;;;;19.77;8.63;;;;;;;;;;5096364;28;20099;-87
2022/05/16 04:28:50;;;;;;;17.45;7.97;;;;;;;;;;5078495;28;20488;-87
2022/05/16 04:31:17;;;;;;;14.15;7.13;;;;;;;;;;5096097;28;20130;-87
2022/05/16 04:33:45;;;;;;;11.85;6.75;;;;;;;;;;5078060;28;20298;-87
2022/05/16 04:36:12;;;;;;;11.68;6.65;;;;;;;;;;5078448;28;20044;-87
2022/05/16 04:38:39;;;;;;;12.95;6.60;;;;;;;;;;5078219;28;20173;-86
2022/05/16 04:43:52;;;;;;;12.77;5.68;;;;;;;;;;5096290;28;20139;-87
2022/05/16 04:46:20;;;;;;;10.18;5.10;;;;;;;;;;5078494;28;20130;-87
2022/05/16 04:48:47;;;;;;;10.93;5.57;;;;;;;;;;5096977;28;20048;-87
2022/05/16 04:51:15;;;;;;;10.07;5.25;;;;;;;;;;5079040;28;20047;-86
2022/05/16 04:53:42;;;;;;;10.73;5.90;;;;;;;;;;5078295;28;20487;-86
2022/05/16 04:56:09;;;;;;;7.15;4.97;;;;;;;;;;5077614;28;20056;-87
2022/05/16 04:58:36;;;;;;;9.30;5.20;;;;;;;;;;5077846;28;20048;-87
2022/05/16 05:01:04;;;;;;;18.65;6.32;;;;;;;;;;5078199;28;20048;-86
2022/05/16 05:03:31;;;;;;;10.07;5.47;;;;;;;;;;5078150;28;20059;-86
2022/05/16 05:05:59;;;;;;;9.30;5.05;;;;;;;;;;5095472;28;20052;-86
2022/05/16 05:08:26;;;;;;;10.57;4.45;;;;;;;;;;5077555;28;20058;-86
2022/05/16 05:16:27;;;;;;;10.95;4.22;;;;;;;;;;5095259;28;20135;-87
2022/05/16 05:18:54;;;;;;;13.75;4.20;;;;;;;;;;5077859;28;20051;-87
2022/05/16 05:21:21;;;;;;;9.88;3.95;;;;;;;;;;5094870;28;20044;-87
2022/05/16 05:23:48;;;;;;;8.00;3.83;;;;;;;;;;5077748;28;20161;-87
2022/05/16 05:26:15;;;;;;;10.50;3.42;;;;;;;;;;5077137;28;20503;-87
2022/05/16 05:28:43;;;;;;;5.43;2.80;;;;;;;;;;5076427;28;20062;-86
2022/05/16 05:31:13;;;;;;;9.82;3.92;;;;;;;;;;5095036;28;20044;-87
2022/05/16 05:33:41;;;;;;;13.55;3.50;;;;;;;;;;5094405;28;20076;-87
2022/05/16 05:36:09;;;;;;;6.55;3.30;;;;;;;;;;5075048;28;20044;-87
2022/05/16 05:38:37;;;;;;;9.70;3.65;;;;;;;;;;5057753;28;20102;-87
2022/05/16 05:41:04;;;;;;;12.00;3.65;;;;;;;;;;5057218;28;20104;-86
2022/05/16 05:43:32;;;;;;;11.07;3.10;;;;;;;;;;5057627;28;20131;-87
2022/05/16 05:45:59;;;;;;;9.43;2.92;;;;;;;;;;5057003;28;20083;-87
2022/05/16 05:48:27;;;;;;;9.23;2.83;;;;;;;;;;5057031;28;20063;-87
2022/05/16 05:50:54;;;;;;;7.18;2.85;;;;;;;;;;5057139;28;20560;-87
2022/05/16 05:53:21;;;;;;;6.88;2.80;;;;;;;;;;5056973;28;20130;-87
2022/05/16 05:55:48;;;;;;;13.30;3.17;;;;;;;;;;5056954;28;20080;-87
2022/05/16 05:58:15;;;;;;;13.60;3.60;;;;;;;;;;5056885;28;20135;-87
2022/05/16 06:00:43;;;;;;;30.20;4.45;;;;;;;;;;5056895;28;20128;-87
2022/05/16 06:03:10;;;;;;;12.30;3.50;;;;;;;;;;5064373;28;20085;-88
2022/05/16 06:05:38;;;;;;;13.63;4.22;;;;;;;;;;5087969;28;20051;-88
2022/05/16 06:08:05;;;;;;;8.52;2.83;;;;;;;;;;5082571;28;20572;-87
2022/05/16 06:10:33;;;;;;;10.32;2.88;;;;;;;;;;5068283;28;20052;-87
2022/05/16 06:13:01;;;;;;;7.45;2.85;;;;;;;;;;5073108;28;20096;-89
2022/05/16 06:15:28;;;;;;;9.07;3.05;;;;;;;;;;5073161;28;20396;-87
2022/05/16 06:17:55;;;;;;;7.82;2.97;;;;;;;;;;5073174;28;20056;-87
2022/05/16 06:20:22;;;;;;;6.47;2.50;;;;;;;;;;5072703;28;20059;-87
2022/05/16 06:22:50;;;;;;;9.90;3.38;;;;;;;;;;5073142;28;20084;-88
2022/05/16 06:25:33;;;;;;;6.95;2.75;;;;;;;;;;5073952;28;20079;-87
2022/05/16 06:28:03;;;;;;;8.27;2.85;;;;;;;;;;5073451;28;20674;-88
2022/05/16 06:30:31;;;;;;;11.40;3.40;;;;;;;;;;5073754;28;20560;-88
2022/05/16 06:32:58;;;;;;;12.80;3.33;;;;;;;;;;5072481;28;20045;-89
2022/05/16 06:35:25;;;;;;;17.40;3.90;;;;;;;;;;5072646;28;20157;-88
2022/05/16 06:37:52;;;;;;;24.30;5.05;;;;;;;;;;5072807;28;20044;-88
2022/05/16 06:40:21;;;;;;;6.78;3.08;;;;;;;;;;5073899;28;20056;-88
2022/05/16 06:42:48;;;;;;;8.75;3.22;;;;;;;;;;5072703;28;20552;-88
2022/05/16 06:45:15;;;;;;;22.67;4.70;;;;;;;;;;5072934;28;20568;-89
2022/05/16 06:47:43;;;;;;;13.70;3.60;;;;;;;;;;5072570;28;20049;-88
2022/05/16 06:50:11;;;;;;;14.18;3.95;;;;;;;;;;5072993;28;20080;-89
2022/05/16 06:52:39;;;;;;;18.05;4.18;;;;;;;;;;5073558;28;20500;-89
2022/05/16 06:55:06;;;;;;;15.32;3.17;;;;;;;;;;5072375;28;20059;-89
2022/05/16 06:57:33;;;;;;;12.68;3.25;;;;;;;;;;5072885;28;20123;-88
2022/05/16 07:00:00;;;;;;;13.35;3.95;;;;;;;;;;5072953;28;20131;-88
2022/05/16 07:02:28;;;;;;;13.32;3.20;;;;;;;;;;5072582;28;20140;-88
2022/05/16 07:04:55;;;;;;;10.65;3.30;;;;;;;;;;5072716;28;20091;-89
2022/05/16 07:07:22;;;;;;;17.15;3.72;;;;;;;;;;5082291;28;20437;-86
2022/05/16 07:09:50;;;;;;;12.10;2.90;;;;;;;;;;5079109;28;20074;-89
2022/05/16 07:12:17;;;;;;;14.40;3.67;;;;;;;;;;5036063;28;20049;-89
2022/05/16 07:14:45;;;;;;;9.90;2.67;;;;;;;;;;5052299;28;20077;-88
2022/05/16 07:17:12;;;;;;;10.35;2.75;;;;;;;;;;5036075;28;20131;-88
2022/05/16 07:19:40;;;;;;;17.63;3.25;;;;;;;;;;5053027;28;20056;-89
2022/05/16 07:22:11;;;;;;;9.00;2.92;;;;;;;;;;5030601;28;20046;-88
2022/05/16 07:24:42;;;;;;;26.92;4.97;;;;;;;;;;5033122;28;20132;-88
2022/05/16 07:29:55;;;;;;;16.27;3.38;;;;;;;;;;5052578;28;20059;-90
2022/05/16 07:32:22;;;;;;;13.68;3.80;;;;;;;;;;5035231;28;20049;-91
2022/05/16 07:34:50;;;;;;;17.20;3.50;;;;;;;;;;5034791;28;20552;-90
2022/05/16 07:37:17;;;;;;;22.65;3.70;;;;;;;;;;5034799;28;20069;-90
2022/05/16 07:39:44;;;;;;;20.23;3.50;;;;;;;;;;5052881;28;20053;-90
2022/05/16 07:42:11;;;;;;;9.07;3.20;;;;;;;;;;5035377;28;20061;-89
2022/05/16 07:44:40;;;;;;;14.50;2.72;;;;;;;;;;5034846;28;20489;-91
2022/05/16 07:47:08;;;;;;;8.20;2.30;;;;;;;;;;5035405;28;20588;-91
2022/05/16 07:49:35;;;;;;;15.32;2.25;;;;;;;;;;5053058;28;20048;-91
2022/05/16 07:52:03;;;;;;;13.73;2.95;;;;;;;;;;5037497;28;20109;-91
2022/05/16 07:54:30;;;;;;;4.43;1.63;;;;;;;;;;5039860;28;20060;-91
2022/05/16 07:56:57;;;;;;;5.63;1.88;;;;;;;;;;5039885;28;20052;-93
2022/05/16 07:59:28;;;;;;;7.10;1.75;;;;;;;;;;5039927;28;20049;-95
2022/05/16 08:01:55;;;;;;;3.28;1.60;;;;;;;;;;5038932;28;20068;-90
2022/05/16 08:04:22;;;;;;;9.18;2.03;;;;;;;;;;5039684;28;20413;-91
2022/05/16 08:06:51;;;;;;;10.13;2.03;;;;;;;;;;5039194;28;20079;-90
2022/05/16 08:12:04;;;;;;;3.80;1.42;;;;;;;;;;5055805;28;20064;-89
2022/05/16 08:14:31;;;;;;;5.15;1.65;;;;;;;;;;5038488;28;20047;-92
2022/05/16 08:16:59;;;;;;;3.40;1.10;;;;;;;;;;5038984;28;20513;-90
2022/05/16 08:19:29;;;;;;;9.43;2.47;;;;;;;;;;5039622;28;20485;-91
2022/05/16 08:21:56;;;;;;;17.33;2.90;;;;;;;;;;5039567;28;20057;-92
2022/05/16 08:24:23;;;;;;;13.13;2.65;;;;;;;;;;5038609;28;20052;-90
2022/05/16 08:26:50;;;;;;;6.68;2.25;;;;;;;;;;5038919;28;20041;-92
2022/05/16 08:29:17;;;;;;;86.40;13.48;;;;;;;;;;5038515;28;20145;-91
2022/05/16 08:31:45;;;;;;;9.35;1.77;;;;;;;;;;5040105;28;20478;-91
2022/05/16 08:34:12;;;;;;;24.35;4.70;;;;;;;;;;5040575;28;20059;-90
2022/05/16 08:42:14;;;;;;;8.57;1.80;;;;;;;;;;5058741;28;20561;-92
2022/05/16 08:44:56;;;;;;;21.92;3.72;;;;;;;;;;5038984;28;20079;-91
2022/05/16 08:47:45;;;;;;;86.13;12.75;;;;;;;;;;5038958;28;20088;-90
2022/05/16 08:50:14;;;;;;;4.95;1.88;;;;;;;;;;5028425;28;20044;-96
2022/05/16 08:53:02;;;;;;;9.90;1.90;;;;;;;;;;5037989;28;20470;-92
2022/05/16 08:55:49;;;;;;;20.02;3.95;;;;;;;;;;5039798;28;20071;-89
2022/05/16 08:58:20;;;;;;;57.97;9.18;;;;;;;;;;5037617;28;20098;-92
2022/05/16 09:00:48;;;;;;;28.30;5.10;;;;;;;;;;5038437;28;20476;-92
2022/05/16 09:03:26;;;;;;;5.80;1.67;;;;;;;;;;5037820;28;20083;-94
2022/05/16 09:05:57;;;;;;;155.43;19.05;;;;;;;;;;5038642;28;20136;-92
2022/05/16 09:08:29;;;;;;;6.05;1.88;;;;;;;;;;5038625;28;20143;-91
2022/05/16 09:11:17;;;;;;;41.53;6.40;;;;;;;;;;5037785;28;20067;-90
2022/05/16 09:13:49;;;;;;;9.93;1.70;;;;;;;;;;5037706;28;20128;-92
2022/05/16 09:16:37;;;;;;;17.23;3.40;;;;;;;;;;5039035;28;20076;-89
2022/05/16 09:19:17;;;;;;;20.60;2.15;;;;;;;;;;5037804;28;20505;-87
2022/05/16 09:21:59;;;;;;;15.88;3.10;;;;;;;;;;5037985;28;20124;-93
2022/05/16 09:24:36;;;;;;;7.60;2.28;;;;;;;;;;5045668;28;20079;-90
2022/05/16 09:27:13;;;;;;;9.25;1.30;;;;;;;;;;5054444;28;20037;-92
2022/05/16 09:29:45;;;;;;;8.02;2.70;;;;;;;;;;5037383;28;20489;-90
2022/05/16 09:32:28;;;;;;;7.20;1.42;;;;;;;;;;5037527;28;20049;-89
2022/05/16 09:34:58;;;;;;;10.75;2.35;;;;;;;;;;5038474;28;20425;-92
2022/05/16 09:37:25;;;;;;;13.15;1.95;;;;;;;;;;5037201;28;20136;-91
2022/05/16 09:39:53;;;;;;;15.95;3.65;;;;;;;;;;5036615;28;20069;-90
2022/05/16 09:42:20;;;;;;;5.18;1.40;;;;;;;;;;5036485;28;20143;-89
2022/05/16 09:44:56;;;;;;;4.90;1.65;;;;;;;;;;5037265;28;20057;-90
2022/05/16 09:47:34;;;;;;;8.25;2.28;;;;;;;;;;5038474;28;20045;-93
2022/05/16 09:50:05;;;;;;;5.32;1.50;;;;;;;;;;5037682;28;20144;-90
2022/05/16 09:52:42;;;;;;;9.98;1.88;;;;;;;;;;5036826;28;20049;-89
2022/05/16 09:55:12;;;;;;;5.13;1.67;;;;;;;;;;5037229;28;20055;-90
2022/05/16 09:57:40;;;;;;;3.88;1.10;;;;;;;;;;5036819;28;20140;-89
2022/05/16 10:00:21;;;;;;;3.50;1.20;;;;;;;;;;5037361;28;20049;-90
2022/05/16 10:03:01;;;;;;;7.97;1.90;;;;;;;;;;5036840;28;20052;-90
2022/05/16 10:05:31;;;;;;;11.18;2.60;;;;;;;;;;5053632;28;20049;-90
2022/05/16 10:08:00;;;;;;;15.38;2.35;;;;;;;;;;5037860;28;20056;-90
2022/05/16 10:10:37;;;;;;;6.85;1.63;;;;;;;;;;5036897;28;20071;-92
2022/05/16 10:13:04;;;;;;;12.15;2.17;;;;;;;;;;5036336;28;20052;-90
2022/05/16 10:15:33;;;;;;;1.27;1.10;;;;;;;;;;5036260;28;20473;-89
2022/05/16 10:18:01;;;;;;;3.92;1.10;;;;;;;;;;5036853;28;20059;-92
2022/05/16 10:20:31;;;;;;;4.10;1.60;;;;;;;;;;5037389;28;20128;-93
2022/05/16 10:23:06;;;;;;;4.45;1.45;;;;;;;;;;5037179;28;20053;-93
2022/05/16 10:25:43;;;;;;;4.75;2.15;;;;;;;;;;5037057;28;20068;-90
2022/05/16 10:28:16;;;;;;;10.82;1.77;;;;;;;;;;5036851;28;20083;-87
2022/05/16 10:33:32;;;;;;;9.30;1.77;;;;;;;;;;5054043;28;20049;-90
2022/05/16 10:36:01;;;;;;;3.47;1.52;;;;;;;;;;5037390;28;20056;-89
2022/05/16 10:38:38;;;;;;;5.65;1.50;;;;;;;;;;5037140;28;20053;-92
2022/05/16 10:41:10;;;;;;;3.63;1.40;;;;;;;;;;5036435;28;20596;-88
2022/05/16 10:43:42;;;;;;;10.25;1.70;;;;;;;;;;5037330;28;20067;-93
2022/05/16 10:46:18;;;;;;;2.15;1.40;;;;;;;;;;5037297;28;20056;-91
2022/05/16 10:49:03;;;;;;;12.25;2.20;;;;;;;;;;5037414;28;20136;-90
2022/05/16 10:51:36;;;;;;;11.90;1.70;;;;;;;;;;5036210;28;20072;-88
2022/05/16 10:54:11;;;;;;;6.47;2.00;;;;;;;;;;5038008;28;20065;-89
2022/05/16 10:56:38;;;;;;;7.20;2.30;;;;;;;;;;5026921;28;20041;-90
2022/05/16 10:59:05;;;;;;;6.78;2.35;;;;;;;;;;5035999;28;20198;-90
2022/05/16 11:01:36;;;;;;;17.02;3.33;;;;;;;;;;5036363;28;20168;-91
2022/05/16 11:04:03;;;;;;;14.10;2.83;;;;;;;;;;5035332;28;20051;-91
2022/05/16 11:06:56;;;;;;;12.00;3.20;;;;;;;;;;5036002;28;20048;-89
2022/05/16 11:09:37;;;;;;;16.98;4.70;;;;;;;;;;5035844;28;20049;-89
2022/05/16 11:12:08;;;;;;;13.00;3.25;;;;;;;;;;5068713;28;20139;-89
2022/05/16 11:14:54;;;;;;;18.13;4.15;;;;;;;;;;5067173;28;20103;-88
2022/05/16 11:17:21;;;;;;;15.13;4.70;;;;;;;;;;5051958;28;20088;-88
2022/05/16 11:20:00;;;;;;;12.68;5.18;;;;;;;;;;5055315;28;20503;-88
2022/05/16 11:22:30;;;;;;;11.70;4.20;;;;;;;;;;5068044;28;20188;-86
2022/05/16 11:25:05;;;;;;;12.02;5.20;;;;;;;;;;5075267;28;20067;-88
2022/05/16 11:27:57;;;;;;;13.93;5.45;;;;;;;;;;5074759;28;20139;-88
2022/05/16 11:30:34;;;;;;;14.88;7.40;;;;;;;;;;5075424;28;20151;-88
2022/05/16 11:33:01;;;;;;;14.05;6.30;;;;;;;;;;5073763;28;20048;-87
2022/05/16 11:35:42;;;;;;;9.35;5.80;;;;;;;;;;5074193;28;20115;-88
2022/05/16 11:38:25;;;;;;;9.27;5.82;;;;;;;;;;5066744;28;20052;-88
2022/05/16 11:40:59;;;;;;;8.20;5.82;;;;;;;;;;5055254;28;20079;-88
2022/05/16 11:43:32;;;;;;;11.77;5.95;;;;;;;;;;5054839;28;20053;-88
2022/05/16 11:45:59;;;;;;;14.43;6.68;;;;;;;;;;5055526;28;20135;-88
2022/05/16 11:48:31;;;;;;;12.52;6.78;;;;;;;;;;5055562;28;20045;-88
2022/05/16 11:51:27;;;;;;;14.07;7.32;;;;;;;;;;5058009;28;20055;-88
2022/05/16 11:54:00;;;;;;;17.92;8.30;;;;;;;;;;5055466;28;20135;-88
2022/05/16 12:02:12;;;;;;;16.67;8.00;;;;;;;;;;5072746;28;20085;-88
2022/05/16 12:04:42;;;;;;;13.73;7.82;;;;;;;;;;5056105;28;20412;-88
2022/05/16 12:07:28;;;;;;;20.70;8.95;;;;;;;;;;5055751;28;20060;-88
2022/05/16 12:09:57;;;;;;;15.82;9.05;;;;;;;;;;5055197;28;20139;-89
2022/05/16 12:12:34;;;;;;;25.98;11.20;;;;;;;;;;5054899;28;20098;-89
2022/05/16 12:15:13;;;;;;;25.52;10.70;;;;;;;;;;5055342;28;20045;-88
2022/05/16 12:17:49;;;;;;;21.30;9.32;;;;;;;;;;5055281;28;20177;-89
2022/05/16 12:20:17;;;;;;;18.30;8.55;;;;;;;;;;5055033;28;20408;-88
2022/05/16 12:22:46;;;;;;;12.57;7.80;;;;;;;;;;5072402;28;20052;-87
2022/05/16 12:25:29;;;;;;;12.23;6.60;;;;;;;;;;5054692;28;20424;-89
2022/05/16 12:28:19;;;;;;;13.48;6.13;;;;;;;;;;5055251;28;20048;-89
2022/05/16 12:30:56;;;;;;;16.35;6.60;;;;;;;;;;5072796;28;20048;-88
2022/05/16 12:33:24;;;;;;;12.90;6.25;;;;;;;;;;5054892;28;20048;-89
2022/05/16 12:35:54;;;;;;;7.57;5.30;;;;;;;;;;5072410;28;20079;-90
2022/05/16 12:38:22;;;;;;;6.40;4.40;;;;;;;;;;5075160;28;20135;-90
2022/05/16 12:40:57;;;;;;;7.40;3.90;;;;;;;;;;5058493;28;20102;-89
2022/05/16 12:43:29;;;;;;;9.70;4.47;;;;;;;;;;5075927;28;20143;-89
2022/05/16 12:46:15;;;;;;;8.32;4.22;;;;;;;;;;5058188;28;20083;-90
2022/05/16 12:48:42;;;;;;;13.30;4.70;;;;;;;;;;5076034;28;20044;-89
2022/05/16 12:51:19;;;;;;;9.35;4.13;;;;;;;;;;5058474;28;20048;-89
2022/05/16 12:54:09;;;;;;;5.80;4.38;;;;;;;;;;5058385;28;20076;-90
2022/05/16 12:56:42;;;;;;;11.20;5.35;;;;;;;;;;5053513;28;20464;-89
2022/05/16 12:59:09;;;;;;;11.95;5.45;;;;;;;;;;5058301;28;20048;-89
2022/05/16 13:01:44;;;;;;;17.58;6.38;;;;;;;;;;5058301;28;20072;-88
2022/05/16 13:04:22;;;;;;;9.48;5.43;;;;;;;;;;5057995;28;20056;-89
2022/05/16 13:06:53;;;;;;;13.38;5.97;;;;;;;;;;5057462;28;20132;-89
2022/05/16 13:09:30;;;;;;;14.75;5.82;;;;;;;;;;5075476;28;20079;-87
2022/05/16 13:12:16;;;;;;;13.50;6.45;;;;;;;;;;5062864;28;20056;-88
2022/05/16 13:14:52;;;;;;;14.13;5.88;;;;;;;;;;5080532;28;20044;-89
2022/05/16 13:17:35;;;;;;;8.10;4.85;;;;;;;;;;5075345;28;20489;-88
2022/05/16 13:20:05;;;;;;;12.23;5.65;;;;;;;;;;5057600;28;20463;-88
2022/05/16 13:22:34;;;;;;;13.13;5.60;;;;;;;;;;5057709;28;20465;-90
2022/05/16 13:25:01;;;;;;;18.88;5.97;;;;;;;;;;5057916;28;20519;-89
2022/05/16 13:30:17;;;;;;;11.40;5.05;;;;;;;;;;5074982;28;20072;-87
2022/05/16 13:32:45;;;;;;;21.65;6.25;;;;;;;;;;5057707;28;20055;-90
2022/05/16 13:35:14;;;;;;;15.27;6.13;;;;;;;;;;5057245;28;20122;-91
2022/05/16 13:37:46;;;;;;;20.45;6.10;;;;;;;;;;5057444;28;20136;-90
2022/05/16 13:40:39;;;;;;;13.48;5.38;;;;;;;;;;5057166;28;20556;-90
2022/05/16 13:43:21;;;;;;;9.98;4.45;;;;;;;;;;5051168;28;20074;-91
2022/05/16 13:45:59;;;;;;;5.20;3.80;;;;;;;;;;5057022;28;20076;-91
2022/05/16 13:48:26;;;;;;;8.27;3.97;;;;;;;;;;5057175;28;20080;-93
2022/05/16 13:50:56;;;;;;;6.68;3.85;;;;;;;;;;5057200;28;20058;-92
2022/05/16 13:53:26;;;;;;;6.30;4.25;;;;;;;;;;5057870;28;20052;-94
2022/05/16 13:55:55;;;;;;;14.52;5.95;;;;;;;;;;5041451;28;20511;-88
2022/05/16 13:58:22;;;;;;;8.82;4.10;;;;;;;;;;5058586;28;20488;-93
2022/05/16 14:00:50;;;;;;;9.20;3.95;;;;;;;;;;5090525;28;20083;-91
2022/05/16 14:03:24;;;;;;;8.38;3.40;;;;;;;;;;5063349;28;20052;-93
2022/05/16 14:05:52;;;;;;;10.23;3.75;;;;;;;;;;5057371;28;20135;-88
2022/05/16 14:08:22;;;;;;;11.48;4.20;;;;;;;;;;5057998;28;20048;-92
2022/05/16 14:10:50;;;;;;;8.30;3.70;;;;;;;;;;5060785;28;20131;-95
2022/05/16 14:13:20;;;;;;;8.95;3.47;;;;;;;;;;5077534;28;20143;-93
2022/05/16 14:15:49;;;;;;;13.13;3.88;;;;;;;;;;5077221;28;20044;-94
2022/05/16 14:18:19;;;;;;;5.13;3.25;;;;;;;;;;5096251;28;20590;-93
2022/05/16 14:20:49;;;;;;;7.40;3.42;;;;;;;;;;5077948;28;20048;-92
2022/05/16 14:23:22;;;;;;;8.00;3.95;;;;;;;;;;5077641;28;20051;-92
2022/05/16 14:25:53;;;;;;;4.13;3.00;;;;;;;;;;5094603;28;20052;-94
2022/05/16 14:28:20;;;;;;;5.20;3.00;;;;;;;;;;5076669;28;20086;-92
2022/05/16 14:30:56;;;;;;;9.38;3.55;;;;;;;;;;5078225;28;20138;-95
2022/05/16 14:33:31;;;;;;;3.22;2.63;;;;;;;;;;5079380;28;20565;-93
2022/05/16 14:36:00;;;;;;;7.05;2.90;;;;;;;;;;5078117;28;20101;-93
2022/05/16 14:38:28;;;;;;;5.18;2.90;;;;;;;;;;5078448;28;20488;-93
2022/05/16 14:41:08;;;;;;;3.85;2.83;;;;;;;;;;5086140;28;20123;-90
2022/05/16 14:43:41;;;;;;;3.60;2.88;;;;;;;;;;5067757;28;20072;-91
2022/05/16 14:48:56;;;;;;;5.38;2.80;;;;;;;;;;5091049;28;19920;-93
2022/05/16 14:51:26;;;;;;;9.18;2.63;;;;;;;;;;5078464;28;20048;-95
2022/05/16 14:53:57;;;;;;;5.85;2.90;;;;;;;;;;5079339;28;20089;-95
2022/05/16 14:56:24;;;;;;;4.93;3.30;;;;;;;;;;5077853;28;20044;-94
2022/05/16 14:58:52;;;;;;;6.97;3.28;;;;;;;;;;5095042;28;20174;-92
2022/05/16 15:04:06;;;;;;;3.65;2.65;;;;;;;;;;5096469;28;20071;-94
2022/05/16 15:06:36;;;;;;;11.00;3.33;;;;;;;;;;5079654;28;20078;-94
2022/05/16 15:09:19;;;;;;;9.93;3.10;;;;;;;;;;5079162;28;20044;-94
2022/05/16 15:11:53;;;;;;;8.77;3.08;;;;;;;;;;5080841;28;20087;-94
2022/05/16 15:14:21;;;;;;;7.15;2.90;;;;;;;;;;5095898;28;20090;-95
2022/05/16 15:16:51;;;;;;;5.47;3.05;;;;;;;;;;5097184;28;20484;-93
2022/05/16 15:19:22;;;;;;;5.30;3.08;;;;;;;;;;5079259;28;20048;-88
2022/05/16 15:21:56;;;;;;;7.20;3.38;;;;;;;;;;5079988;28;20056;-95
2022/05/16 15:24:23;;;;;;;;;;;;;;;;;;5085152;28;20079;-91
2022/05/16 15:27:10;;;;;;;8.20;3.17;;;;;;;;;;5096246;28;19924;-94
2022/05/16 15:29:37;;;;;;;8.80;2.83;;;;;;;;;;5082830;28;20127;-95
2022/05/16 15:32:05;;;;;;;6.22;3.13;;;;;;;;;;5085426;28;20442;-95
2022/05/16 15:34:34;;;;;;;6.78;3.58;;;;;;;;;;5081733;28;20130;-94
2022/05/16 15:37:02;;;;;;;3.85;3.05;;;;;;;;;;5081336;28;20143;-93
2022/05/16 15:39:34;;;;;;;9.82;3.60;;;;;;;;;;5084142;28;20052;-95
2022/05/16 15:42:08;;;;;;;5.88;3.50;;;;;;;;;;5085495;28;20077;-95